Time,TemperatureF,DewpointF,PressureIn,WindDirection,WindDirectionDegrees,WindSpeedMPH,WindSpeedGustMPH,Humidity,HourlyPrecipIn,Conditions,Clouds,dailyrainin,SoftwareType,DateUTC
2013-04-16 00:31:00,56.0,55.0,30.36,NNW,331,0.0,-999.0,96,-99.99,,,0.57,weatherlink.com 1.10,2013-04-16 04:31:00,
2013-04-16 00:46:00,56.0,55.0,30.36,NNW,331,0.0,-999.0,96,-99.99,,,0.57,weatherlink.com 1.10,2013-04-16 04:46:00,
2013-04-16 01:01:00,56.0,55.0,30.36,NNW,331,0.0,-999.0,96,-99.99,,,0.57,weatherlink.com 1.10,2013-04-16 05:01:00,
2013-04-16 01:16:00,56.0,55.0,30.36,NNW,331,0.0,-999.0,96,-99.99,,,0.57,weatherlink.com 1.10,2013-04-16 05:16:00,
2013-04-16 01:31:00,56.0,55.0,30.37,NNW,331,0.0,-999.0,96,-99.99,,,0.57,weatherlink.com 1.10,2013-04-16 05:31:00,
2013-04-16 01:46:00,56.0,55.0,30.37,NNW,331,0.0,-999.0,96,-99.99,,,0.00,weatherlink.com 1.10,2013-04-16 05:46:00,
2013-04-16 02:01:00,56.0,55.0,30.36,NNW,331,0.0,-999.0,96,-99.99,,,0.00,weatherlink.com 1.10,2013-04-16 06:01:00,
2013-04-16 02:16:00,56.0,55.0,30.35,NNW,331,0.0,-999.0,96,-99.99,,,0.00,weatherlink.com 1.10,2013-04-16 06:16:00,
2013-04-16 02:31:00,56.0,55.0,30.35,NNW,331,0.0,-999.0,97,-99.99,,,0.00,weatherlink.com 1.10,2013-04-16 06:31:00,
2013-04-16 02:46:00,56.0,55.0,30.36,NNW,331,0.0,-999.0,97,-99.99,,,0.00,weatherlink.com 1.10,2013-04-16 06:46:00,
2013-04-16 03:01:00,56.0,55.0,30.36,NNW,331,0.0,-999.0,97,-99.99,,,0.00,weatherlink.com 1.10,2013-04-16 07:01:00,
2013-04-16 03:16:00,56.0,55.0,30.36,NNW,331,0.0,-999.0,97,-99.99,,,0.00,weatherlink.com 1.10,2013-04-16 07:16:00,
2013-04-16 03:31:00,56.0,55.0,30.35,NNW,331,0.0,-999.0,97,-99.99,,,0.00,weatherlink.com 1.10,2013-04-16 07:31:00,
2013-04-16 03:46:00,56.0,55.0,30.35,NNW,331,0.0,-999.0,97,-99.99,,,0.00,weatherlink.com 1.10,2013-04-16 07:46:00,
2013-04-16 04:01:00,56.0,55.0,30.36,NNW,331,0.0,-999.0,97,-99.99,,,0.00,weatherlink.com 1.10,2013-04-16 08:01:00,
2013-04-16 04:16:00,56.0,55.0,30.36,NNW,331,0.0,-999.0,97,-99.99,,,0.00,weatherlink.com 1.10,2013-04-16 08:16:00,
2013-04-16 04:31:00,56.0,55.0,30.36,NNW,331,0.0,-999.0,97,-99.99,,,0.00,weatherlink.com 1.10,2013-04-16 08:31:00,
2013-04-16 04:46:00,56.0,55.0,30.36,NNW,331,0.0,-999.0,97,-99.99,,,0.00,weatherlink.com 1.10,2013-04-16 08:46:00,
2013-04-16 05:01:00,56.0,55.0,30.36,NNW,331,0.0,-999.0,97,-99.99,,,0.00,weatherlink.com 1.10,2013-04-16 09:01:00,
2013-04-16 05:16:00,56.0,55.0,30.36,NNW,331,0.0,-999.0,97,-99.99,,,0.00,weatherlink.com 1.10,2013-04-16 09:16:00,
2013-04-16 05:31:00,56.0,55.0,30.36,NNW,331,0.0,-999.0,97,-99.99,,,0.00,weatherlink.com 1.10,2013-04-16 09:31:00,
2013-04-16 05:46:00,56.0,55.0,30.36,NNW,331,0.0,-999.0,97,-99.99,,,0.00,weatherlink.com 1.10,2013-04-16 09:46:00,
2013-04-16 06:01:00,56.0,55.0,30.36,NNW,331,0.0,-999.0,97,-99.99,,,0.00,weatherlink.com 1.10,2013-04-16 10:01:00,
2013-04-16 06:16:00,56.0,55.0,30.37,NNW,331,0.0,-999.0,97,-99.99,,,0.00,weatherlink.com 1.10,2013-04-16 10:16:00,
2013-04-16 06:31:00,56.0,55.0,30.37,NNW,331,0.0,-999.0,97,-99.99,,,0.00,weatherlink.com 1.10,2013-04-16 10:31:00,
2013-04-16 06:46:00,56.0,55.0,30.38,NNW,331,0.0,-999.0,97,-99.99,,,0.00,weatherlink.com 1.10,2013-04-16 10:46:00,
2013-04-16 07:01:00,56.1,55.0,30.38,NNW,331,0.0,-999.0,97,-99.99,,,0.00,weatherlink.com 1.10,2013-04-16 11:01:00,
2013-04-16 07:16:00,56.1,55.0,30.39,NNW,331,0.0,-999.0,97,-99.99,,,0.00,weatherlink.com 1.10,2013-04-16 11:16:00,
2013-04-16 07:31:00,56.1,55.0,30.39,NNW,331,0.0,-999.0,97,-99.99,,,0.00,weatherlink.com 1.10,2013-04-16 11:31:00,
2013-04-16 07:46:00,56.2,55.0,30.40,NNW,331,0.0,-999.0,97,-99.99,,,0.00,weatherlink.com 1.10,2013-04-16 11:46:00,
2013-04-16 08:01:00,56.2,55.0,30.40,NNW,331,0.0,-999.0,97,-99.99,,,0.00,weatherlink.com 1.10,2013-04-16 12:01:00,
2013-04-16 08:16:00,56.3,56.0,30.41,NNW,331,0.0,-999.0,97,-99.99,,,0.00,weatherlink.com 1.10,2013-04-16 12:16:00,
2013-04-16 08:31:00,56.4,56.0,30.41,NNW,331,0.0,-999.0,97,-99.99,,,0.00,weatherlink.com 1.10,2013-04-16 12:31:00,
2013-04-16 08:46:00,56.6,56.0,30.42,NNW,331,0.0,-999.0,97,-99.99,,,0.00,weatherlink.com 1.10,2013-04-16 12:46:00,
2013-04-16 09:02:00,56.8,56.0,30.42,NNW,331,0.0,-999.0,97,-99.99,,,0.00,weatherlink.com 1.10,2013-04-16 13:02:00,
2013-04-16 09:16:00,57.1,57.0,30.42,NNW,331,0.0,-999.0,98,-99.99,,,0.00,weatherlink.com 1.10,2013-04-16 13:16:00,
2013-04-16 09:32:00,57.3,57.0,30.42,NNW,331,0.0,-999.0,98,-99.99,,,0.00,weatherlink.com 1.10,2013-04-16 13:32:00,
2013-04-16 09:47:00,57.5,57.0,30.43,NNW,331,0.0,-999.0,97,-99.99,,,0.00,weatherlink.com 1.10,2013-04-16 13:47:00,
2013-04-16 10:02:00,57.9,57.0,30.44,NNW,331,0.0,-999.0,98,-99.99,,,0.00,weatherlink.com 1.10,2013-04-16 14:02:00,
2013-04-16 10:17:00,58.1,57.0,30.44,NNW,331,0.0,-999.0,97,-99.99,,,0.00,weatherlink.com 1.10,2013-04-16 14:17:00,
2013-04-16 10:32:00,58.8,58.0,30.44,NNW,331,0.0,-999.0,97,-99.99,,,0.00,weatherlink.com 1.10,2013-04-16 14:32:00,
2013-04-16 10:47:00,59.5,58.0,30.44,NNW,331,0.0,-999.0,95,-99.99,,,0.00,weatherlink.com 1.10,2013-04-16 14:47:00,
2013-04-16 11:02:00,60.4,59.0,30.44,NNW,331,0.0,-999.0,94,-99.99,,,0.00,weatherlink.com 1.10,2013-04-16 15:02:00,
2013-04-16 11:17:00,60.8,58.0,30.44,NNW,331,1.0,-999.0,91,-99.99,,,0.00,weatherlink.com 1.10,2013-04-16 15:17:00,
2013-04-16 11:32:00,61.1,59.0,30.44,NNW,331,0.0,-999.0,91,-99.99,,,0.00,weatherlink.com 1.10,2013-04-16 15:32:00,
2013-04-16 11:47:00,62.4,60.0,30.43,NNW,331,1.0,-999.0,91,-99.99,,,0.00,weatherlink.com 1.10,2013-04-16 15:47:00,
2013-04-16 12:02:00,64.4,61.0,30.43,ENE,74,0.0,-999.0,89,-99.99,,,0.00,weatherlink.com 1.10,2013-04-16 16:02:00,
2013-04-16 12:17:00,65.4,62.0,30.42,West,275,4.0,-999.0,87,-99.99,,,0.00,weatherlink.com 1.10,2013-04-16 16:17:00,
2013-04-16 12:32:00,66.8,61.0,30.42,South,173,5.0,-999.0,81,-99.99,,,0.00,weatherlink.com 1.10,2013-04-16 16:32:00,
2013-04-16 12:47:00,67.8,60.0,30.41,SSW,198,0.0,-999.0,77,-99.99,,,0.00,weatherlink.com 1.10,2013-04-16 16:47:00,
2013-04-16 13:02:00,68.8,61.0,30.40,SSE,153,10.0,-999.0,76,-99.99,,,0.00,weatherlink.com 1.10,2013-04-16 17:02:00,
2013-04-16 13:17:00,69.9,62.0,30.39,SSE,150,5.0,-999.0,75,-99.99,,,0.00,weatherlink.com 1.10,2013-04-16 17:17:00,
2013-04-16 13:32:00,69.9,61.0,30.39,SW,232,4.0,-999.0,74,-99.99,,,0.00,weatherlink.com 1.10,2013-04-16 17:32:00,
2013-04-16 13:47:00,70.8,61.0,30.38,SE,138,0.0,-999.0,71,-99.99,,,0.00,weatherlink.com 1.10,2013-04-16 17:47:00,
2013-04-16 14:02:00,71.2,62.0,30.38,SSE,167,6.0,-999.0,73,-99.99,,,0.00,weatherlink.com 1.10,2013-04-16 18:02:00,
2013-04-16 14:17:00,71.9,62.0,30.36,SSE,168,0.0,-999.0,70,-99.99,,,0.00,weatherlink.com 1.10,2013-04-16 18:17:00,
2013-04-16 14:33:00,72.4,62.0,30.36,SSE,168,8.0,-999.0,70,-99.99,,,0.00,weatherlink.com 1.10,2013-04-16 18:33:00,
2013-04-16 14:48:00,72.9,62.0,30.36,South,181,1.0,-999.0,69,-99.99,,,0.00,weatherlink.com 1.10,2013-04-16 18:48:00,
2013-04-16 15:03:00,73.1,61.0,30.34,SW,217,2.0,-999.0,67,-99.99,,,0.00,weatherlink.com 1.10,2013-04-16 19:03:00,
2013-04-16 15:18:00,74.0,62.0,30.33,SSE,150,7.0,-999.0,67,-99.99,,,0.00,weatherlink.com 1.10,2013-04-16 19:18:00,
2013-04-16 15:33:00,74.2,61.0,30.33,SSE,163,4.0,-999.0,64,-99.99,,,0.00,weatherlink.com 1.10,2013-04-16 19:33:00,
2013-04-16 15:48:00,74.3,62.0,30.32,SE,142,8.0,-999.0,65,-99.99,,,0.00,weatherlink.com 1.10,2013-04-16 19:48:00,
2013-04-16 16:03:00,73.7,62.0,30.32,SSE,150,2.0,-999.0,66,-99.99,,,0.00,weatherlink.com 1.10,2013-04-16 20:03:00,
2013-04-16 16:18:00,74.2,62.0,30.31,South,189,0.0,-999.0,66,-99.99,,,0.00,weatherlink.com 1.10,2013-04-16 20:18:00,
2013-04-16 16:33:00,74.2,63.0,30.31,SSE,163,0.0,-999.0,69,-99.99,,,0.00,weatherlink.com 1.10,2013-04-16 20:33:00,
2013-04-16 16:48:00,75.3,63.0,30.30,ESE,112,2.0,-999.0,66,-99.99,,,0.00,weatherlink.com 1.10,2013-04-16 20:48:00,
2013-04-16 17:03:00,74.9,63.0,30.31,SSE,163,5.0,-999.0,67,-99.99,,,0.00,weatherlink.com 1.10,2013-04-16 21:03:00,
2013-04-16 17:18:00,74.3,61.0,30.30,SSE,163,0.0,-999.0,64,-99.99,,,0.00,weatherlink.com 1.10,2013-04-16 21:18:00,
2013-04-16 17:33:00,75.1,63.0,30.30,SSE,159,4.0,-999.0,66,-99.99,,,0.00,weatherlink.com 1.10,2013-04-16 21:33:00,
2013-04-16 17:48:00,75.3,62.0,30.30,SSW,207,4.0,-999.0,64,-99.99,,,0.00,weatherlink.com 1.10,2013-04-16 21:48:00,
2013-04-16 18:03:00,74.7,62.0,30.30,SE,131,1.0,-999.0,64,-99.99,,,0.00,weatherlink.com 1.10,2013-04-16 22:03:00,
2013-04-16 18:18:00,74.0,61.0,30.30,SSE,148,5.0,-999.0,64,-99.99,,,0.00,weatherlink.com 1.10,2013-04-16 22:18:00,
2013-04-16 18:33:00,73.1,62.0,30.30,SE,144,0.0,-999.0,68,-99.99,,,0.00,weatherlink.com 1.10,2013-04-16 22:33:00,
2013-04-16 18:48:00,73.1,62.0,30.30,South,180,1.0,-999.0,68,-99.99,,,0.00,weatherlink.com 1.10,2013-04-16 22:48:00,
2013-04-16 19:03:00,73.4,61.0,30.29,SSE,162,4.0,-999.0,65,-99.99,,,0.00,weatherlink.com 1.10,2013-04-16 23:03:00,
2013-04-16 19:18:00,71.8,61.0,30.29,SE,143,0.0,-999.0,69,-99.99,,,0.00,weatherlink.com 1.10,2013-04-16 23:18:00,
2013-04-16 19:33:00,70.4,62.0,30.29,South,184,0.0,-999.0,74,-99.99,,,0.00,weatherlink.com 1.10,2013-04-16 23:33:00,
2013-04-16 19:48:00,70.2,61.0,30.30,South,184,0.0,-999.0,73,-99.99,,,0.00,weatherlink.com 1.10,2013-04-16 23:48:00,
2013-04-16 20:03:00,69.4,62.0,30.30,South,184,0.0,-999.0,76,-99.99,,,0.00,weatherlink.com 1.10,2013-04-17 00:03:00,
2013-04-16 20:18:00,67.7,61.0,30.30,South,184,0.0,-999.0,79,-99.99,,,0.00,weatherlink.com 1.10,2013-04-17 00:18:00,
2013-04-16 20:33:00,66.4,61.0,30.31,South,184,0.0,-999.0,82,-99.99,,,0.00,weatherlink.com 1.10,2013-04-17 00:33:00,
2013-04-16 20:48:00,65.1,60.0,30.32,South,184,0.0,-999.0,82,-99.99,,,0.00,weatherlink.com 1.10,2013-04-17 00:48:00,
2013-04-16 21:03:00,63.8,59.0,30.32,South,184,0.0,-999.0,83,-99.99,,,0.00,weatherlink.com 1.10,2013-04-17 01:03:00,
2013-04-16 21:18:00,62.7,58.0,30.33,South,184,0.0,-999.0,85,-99.99,,,0.00,weatherlink.com 1.10,2013-04-17 01:18:00,
2013-04-16 21:33:00,61.7,58.0,30.34,South,184,0.0,-999.0,86,-99.99,,,0.00,weatherlink.com 1.10,2013-04-17 01:33:00,
2013-04-16 21:48:00,60.9,57.0,30.34,South,184,0.0,-999.0,87,-99.99,,,0.00,weatherlink.com 1.10,2013-04-17 01:48:00,
2013-04-16 22:03:00,60.1,57.0,30.34,South,184,0.0,-999.0,88,-99.99,,,0.00,weatherlink.com 1.10,2013-04-17 02:03:00,
2013-04-16 22:18:00,59.4,56.0,30.34,South,184,0.0,-999.0,89,-99.99,,,0.00,weatherlink.com 1.10,2013-04-17 02:18:00,
2013-04-16 22:33:00,58.9,56.0,30.35,South,184,0.0,-999.0,90,-99.99,,,0.00,weatherlink.com 1.10,2013-04-17 02:33:00,
2013-04-16 22:48:00,58.3,56.0,30.34,South,184,0.0,-999.0,91,-99.99,,,0.00,weatherlink.com 1.10,2013-04-17 02:48:00,
2013-04-16 23:03:00,57.7,55.0,30.34,South,184,0.0,-999.0,91,-99.99,,,0.00,weatherlink.com 1.10,2013-04-17 03:03:00,
2013-04-16 23:18:00,57.1,55.0,30.34,South,184,0.0,-999.0,92,-99.99,,,0.00,weatherlink.com 1.10,2013-04-17 03:18:00,
2013-04-16 23:33:00,56.6,54.0,30.33,South,184,0.0,-999.0,92,-99.99,,,0.00,weatherlink.com 1.10,2013-04-17 03:33:00,
2013-04-16 23:48:00,56.2,54.0,30.34,South,184,0.0,-999.0,92,-99.99,,,0.00,weatherlink.com 1.10,2013-04-17 03:48:00,